sensor_id;sensor_type;location;lat;lon;timestamp;temperature;humidity
37998;DHT22;24079;51.824;4.682;2023-09-08T00:01:55;22.00;99.90
37998;DHT22;24079;51.824;4.682;2023-09-08T00:04:21;22.00;99.90
37998;DHT22;24079;51.824;4.682;2023-09-08T00:06:47;22.00;99.90
37998;DHT22;24079;51.824;4.682;2023-09-08T00:09:12;22.00;99.90
37998;DHT22;24079;51.824;4.682;2023-09-08T00:11:38;22.00;99.90
37998;DHT22;24079;51.824;4.682;2023-09-08T00:14:06;22.00;99.90
37998;DHT22;24079;51.824;4.682;2023-09-08T00:16:32;22.00;99.90
37998;DHT22;24079;51.824;4.682;2023-09-08T00:18:58;21.90;99.90
37998;DHT22;24079;51.824;4.682;2023-09-08T00:21:27;21.90;99.90
37998;DHT22;24079;51.824;4.682;2023-09-08T00:23:53;21.90;99.90
37998;DHT22;24079;51.824;4.682;2023-09-08T00:26:20;21.90;99.90
37998;DHT22;24079;51.824;4.682;2023-09-08T00:28:47;21.90;99.90
37998;DHT22;24079;51.824;4.682;2023-09-08T00:31:13;21.90;99.90
37998;DHT22;24079;51.824;4.682;2023-09-08T00:33:39;21.80;99.90
37998;DHT22;24079;51.824;4.682;2023-09-08T00:36:06;21.80;99.90
37998;DHT22;24079;51.824;4.682;2023-09-08T00:38:32;21.80;99.90
37998;DHT22;24079;51.824;4.682;2023-09-08T00:40:57;21.80;99.90
37998;DHT22;24079;51.824;4.682;2023-09-08T00:43:25;21.70;99.90
37998;DHT22;24079;51.824;4.682;2023-09-08T00:45:50;21.70;99.90
37998;DHT22;24079;51.824;4.682;2023-09-08T00:48:16;21.70;99.90
37998;DHT22;24079;51.824;4.682;2023-09-08T00:50:42;21.60;99.90
37998;DHT22;24079;51.824;4.682;2023-09-08T00:53:09;21.60;99.90
37998;DHT22;24079;51.824;4.682;2023-09-08T00:55:35;21.60;99.90
37998;DHT22;24079;51.824;4.682;2023-09-08T00:58:01;21.60;99.90
37998;DHT22;24079;51.824;4.682;2023-09-08T01:00:27;21.50;99.90
37998;DHT22;24079;51.824;4.682;2023-09-08T01:02:53;21.50;99.90
37998;DHT22;24079;51.824;4.682;2023-09-08T01:05:20;21.50;99.90
37998;DHT22;24079;51.824;4.682;2023-09-08T01:07:46;21.40;99.90
37998;DHT22;24079;51.824;4.682;2023-09-08T01:10:13;21.40;99.90
37998;DHT22;24079;51.824;4.682;2023-09-08T01:12:40;21.40;99.90
37998;DHT22;24079;51.824;4.682;2023-09-08T01:15:06;21.40;99.90
37998;DHT22;24079;51.824;4.682;2023-09-08T01:17:34;21.40;99.90
37998;DHT22;24079;51.824;4.682;2023-09-08T01:25:29;21.30;99.90
37998;DHT22;24079;51.824;4.682;2023-09-08T01:27:59;21.30;99.90
37998;DHT22;24079;51.824;4.682;2023-09-08T01:30:28;21.20;99.90
37998;DHT22;24079;51.824;4.682;2023-09-08T01:32:55;21.20;99.90
37998;DHT22;24079;51.824;4.682;2023-09-08T01:35:22;21.20;99.90
37998;DHT22;24079;51.824;4.682;2023-09-08T01:37:49;21.20;99.90
37998;DHT22;24079;51.824;4.682;2023-09-08T01:40:15;21.20;99.90
37998;DHT22;24079;51.824;4.682;2023-09-08T01:42:41;21.10;99.90
37998;DHT22;24079;51.824;4.682;2023-09-08T01:45:08;21.20;99.90
37998;DHT22;24079;51.824;4.682;2023-09-08T01:47:34;21.10;99.90
37998;DHT22;24079;51.824;4.682;2023-09-08T01:50:00;21.10;99.90
37998;DHT22;24079;51.824;4.682;2023-09-08T01:52:26;21.10;99.90
37998;DHT22;24079;51.824;4.682;2023-09-08T01:54:52;21.10;99.90
37998;DHT22;24079;51.824;4.682;2023-09-08T01:57:18;21.10;99.90
37998;DHT22;24079;51.824;4.682;2023-09-08T01:59:44;21.10;99.90
37998;DHT22;24079;51.824;4.682;2023-09-08T02:02:13;21.10;99.90
37998;DHT22;24079;51.824;4.682;2023-09-08T02:04:39;21.10;99.90
37998;DHT22;24079;51.824;4.682;2023-09-08T02:07:05;21.10;99.90
37998;DHT22;24079;51.824;4.682;2023-09-08T02:09:37;21.10;99.90
37998;DHT22;24079;51.824;4.682;2023-09-08T02:12:03;21.10;99.90
37998;DHT22;24079;51.824;4.682;2023-09-08T02:14:30;21.00;99.90
37998;DHT22;24079;51.824;4.682;2023-09-08T02:16:56;21.00;99.90
37998;DHT22;24079;51.824;4.682;2023-09-08T02:19:22;21.00;99.90
37998;DHT22;24079;51.824;4.682;2023-09-08T02:21:48;20.90;99.90
37998;DHT22;24079;51.824;4.682;2023-09-08T02:24:13;20.90;99.90
37998;DHT22;24079;51.824;4.682;2023-09-08T02:26:39;20.90;99.90
37998;DHT22;24079;51.824;4.682;2023-09-08T02:29:05;20.90;99.90
37998;DHT22;24079;51.824;4.682;2023-09-08T02:31:31;20.90;99.90
37998;DHT22;24079;51.824;4.682;2023-09-08T02:34:00;20.90;99.90
37998;DHT22;24079;51.824;4.682;2023-09-08T02:36:26;20.90;99.90
37998;DHT22;24079;51.824;4.682;2023-09-08T02:38:55;20.90;99.90
37998;DHT22;24079;51.824;4.682;2023-09-08T02:41:21;20.90;99.90
37998;DHT22;24079;51.824;4.682;2023-09-08T02:43:47;20.90;99.90
37998;DHT22;24079;51.824;4.682;2023-09-08T02:46:13;20.80;99.90
37998;DHT22;24079;51.824;4.682;2023-09-08T02:48:39;20.90;99.90
37998;DHT22;24079;51.824;4.682;2023-09-08T02:51:05;20.90;99.90
37998;DHT22;24079;51.824;4.682;2023-09-08T02:53:30;20.90;99.90
37998;DHT22;24079;51.824;4.682;2023-09-08T02:55:57;20.80;99.90
37998;DHT22;24079;51.824;4.682;2023-09-08T02:58:25;20.80;99.90
37998;DHT22;24079;51.824;4.682;2023-09-08T03:00:51;20.70;99.90
37998;DHT22;24079;51.824;4.682;2023-09-08T03:03:18;20.60;99.90
37998;DHT22;24079;51.824;4.682;2023-09-08T03:05:44;20.60;99.90
37998;DHT22;24079;51.824;4.682;2023-09-08T03:08:10;20.60;99.90
37998;DHT22;24079;51.824;4.682;2023-09-08T03:10:36;20.60;99.90
37998;DHT22;24079;51.824;4.682;2023-09-08T03:13:02;20.60;99.90
37998;DHT22;24079;51.824;4.682;2023-09-08T03:15:28;20.60;99.90
37998;DHT22;24079;51.824;4.682;2023-09-08T03:17:58;20.60;99.90
37998;DHT22;24079;51.824;4.682;2023-09-08T03:20:25;20.60;99.90
37998;DHT22;24079;51.824;4.682;2023-09-08T03:22:54;20.50;99.90
37998;DHT22;24079;51.824;4.682;2023-09-08T03:25:20;20.50;99.90
37998;DHT22;24079;51.824;4.682;2023-09-08T03:27:46;20.50;99.90
37998;DHT22;24079;51.824;4.682;2023-09-08T03:30:11;20.50;99.90
37998;DHT22;24079;51.824;4.682;2023-09-08T03:32:37;20.50;99.90
37998;DHT22;24079;51.824;4.682;2023-09-08T03:35:04;20.50;99.90
37998;DHT22;24079;51.824;4.682;2023-09-08T03:37:34;20.40;99.90
37998;DHT22;24079;51.824;4.682;2023-09-08T03:39:59;20.50;99.90
37998;DHT22;24079;51.824;4.682;2023-09-08T03:42:25;20.40;99.90
37998;DHT22;24079;51.824;4.682;2023-09-08T03:44:50;20.40;99.90
37998;DHT22;24079;51.824;4.682;2023-09-08T03:47:16;20.50;99.90
37998;DHT22;24079;51.824;4.682;2023-09-08T03:49:42;20.40;99.90
37998;DHT22;24079;51.824;4.682;2023-09-08T03:52:07;20.40;99.90
37998;DHT22;24079;51.824;4.682;2023-09-08T03:54:33;20.40;99.90
37998;DHT22;24079;51.824;4.682;2023-09-08T03:56:59;20.40;99.90
37998;DHT22;24079;51.824;4.682;2023-09-08T03:59:24;20.40;99.90
37998;DHT22;24079;51.824;4.682;2023-09-08T04:01:50;20.40;99.90
37998;DHT22;24079;51.824;4.682;2023-09-08T04:04:16;20.40;99.90
37998;DHT22;24079;51.824;4.682;2023-09-08T04:06:41;20.30;99.90
37998;DHT22;24079;51.824;4.682;2023-09-08T04:09:07;20.40;99.90
37998;DHT22;24079;51.824;4.682;2023-09-08T04:11:33;20.40;99.90
37998;DHT22;24079;51.824;4.682;2023-09-08T04:13:58;20.30;99.90
37998;DHT22;24079;51.824;4.682;2023-09-08T04:16:25;20.30;99.90
37998;DHT22;24079;51.824;4.682;2023-09-08T04:18:51;20.30;99.90
37998;DHT22;24079;51.824;4.682;2023-09-08T04:21:17;20.30;99.90
37998;DHT22;24079;51.824;4.682;2023-09-08T04:23:42;20.30;99.90
37998;DHT22;24079;51.824;4.682;2023-09-08T04:26:08;20.20;99.90
37998;DHT22;24079;51.824;4.682;2023-09-08T04:28:33;20.20;99.90
37998;DHT22;24079;51.824;4.682;2023-09-08T04:30:59;20.20;99.90
37998;DHT22;24079;51.824;4.682;2023-09-08T04:33:25;20.20;99.90
37998;DHT22;24079;51.824;4.682;2023-09-08T04:35:51;20.20;99.90
37998;DHT22;24079;51.824;4.682;2023-09-08T04:38:16;20.10;99.90
37998;DHT22;24079;51.824;4.682;2023-09-08T04:40:44;20.20;99.90
37998;DHT22;24079;51.824;4.682;2023-09-08T04:43:10;20.20;99.90
37998;DHT22;24079;51.824;4.682;2023-09-08T04:45:35;20.20;99.90
37998;DHT22;24079;51.824;4.682;2023-09-08T04:48:01;20.20;99.90
37998;DHT22;24079;51.824;4.682;2023-09-08T04:50:27;20.20;99.90
37998;DHT22;24079;51.824;4.682;2023-09-08T04:52:52;20.20;99.90
37998;DHT22;24079;51.824;4.682;2023-09-08T04:55:18;20.30;99.90
37998;DHT22;24079;51.824;4.682;2023-09-08T04:57:45;20.30;99.90
37998;DHT22;24079;51.824;4.682;2023-09-08T05:00:11;20.20;99.90
37998;DHT22;24079;51.824;4.682;2023-09-08T05:02:37;20.20;99.90
37998;DHT22;24079;51.824;4.682;2023-09-08T05:05:03;20.20;99.90
37998;DHT22;24079;51.824;4.682;2023-09-08T05:07:29;20.20;99.90
37998;DHT22;24079;51.824;4.682;2023-09-08T05:09:54;20.20;99.90
37998;DHT22;24079;51.824;4.682;2023-09-08T05:12:20;20.20;99.90
37998;DHT22;24079;51.824;4.682;2023-09-08T05:14:46;20.20;99.90
37998;DHT22;24079;51.824;4.682;2023-09-08T05:17:11;20.10;99.90
37998;DHT22;24079;51.824;4.682;2023-09-08T05:19:37;20.10;99.90
37998;DHT22;24079;51.824;4.682;2023-09-08T05:22:05;20.10;99.90
37998;DHT22;24079;51.824;4.682;2023-09-08T05:24:31;20.00;99.90
37998;DHT22;24079;51.824;4.682;2023-09-08T05:26:57;20.00;99.90
37998;DHT22;24079;51.824;4.682;2023-09-08T05:29:22;20.00;99.90
37998;DHT22;24079;51.824;4.682;2023-09-08T05:31:48;20.10;99.90
37998;DHT22;24079;51.824;4.682;2023-09-08T05:34:13;20.10;99.90
37998;DHT22;24079;51.824;4.682;2023-09-08T05:36:39;20.10;99.90
37998;DHT22;24079;51.824;4.682;2023-09-08T05:39:07;20.10;99.90
37998;DHT22;24079;51.824;4.682;2023-09-08T05:41:33;20.20;99.90
37998;DHT22;24079;51.824;4.682;2023-09-08T05:44:00;20.20;99.90
37998;DHT22;24079;51.824;4.682;2023-09-08T05:46:26;20.30;99.90
37998;DHT22;24079;51.824;4.682;2023-09-08T05:48:52;20.40;99.90
37998;DHT22;24079;51.824;4.682;2023-09-08T05:51:18;20.40;99.90
37998;DHT22;24079;51.824;4.682;2023-09-08T05:53:44;20.40;99.90
37998;DHT22;24079;51.824;4.682;2023-09-08T05:56:10;20.40;99.90
37998;DHT22;24079;51.824;4.682;2023-09-08T05:58:36;20.40;99.90
37998;DHT22;24079;51.824;4.682;2023-09-08T06:01:03;20.50;99.90
37998;DHT22;24079;51.824;4.682;2023-09-08T06:03:29;20.50;99.90
37998;DHT22;24079;51.824;4.682;2023-09-08T06:05:55;20.60;99.90
37998;DHT22;24079;51.824;4.682;2023-09-08T06:08:20;20.60;99.90
37998;DHT22;24079;51.824;4.682;2023-09-08T06:10:46;20.70;99.90
37998;DHT22;24079;51.824;4.682;2023-09-08T06:13:12;20.70;99.90
37998;DHT22;24079;51.824;4.682;2023-09-08T06:15:37;20.70;99.90
37998;DHT22;24079;51.824;4.682;2023-09-08T06:18:03;20.70;99.90
37998;DHT22;24079;51.824;4.682;2023-09-08T06:20:29;20.80;99.90
37998;DHT22;24079;51.824;4.682;2023-09-08T06:22:54;20.80;99.90
37998;DHT22;24079;51.824;4.682;2023-09-08T06:25:20;20.80;99.90
37998;DHT22;24079;51.824;4.682;2023-09-08T06:27:46;20.80;99.90
37998;DHT22;24079;51.824;4.682;2023-09-08T06:30:12;20.80;99.90
37998;DHT22;24079;51.824;4.682;2023-09-08T06:32:43;21.10;99.90
37998;DHT22;24079;51.824;4.682;2023-09-08T06:35:09;21.10;99.90
37998;DHT22;24079;51.824;4.682;2023-09-08T06:37:36;21.40;99.90
37998;DHT22;24079;51.824;4.682;2023-09-08T06:40:03;21.90;99.90
37998;DHT22;24079;51.824;4.682;2023-09-08T06:42:29;22.10;99.90
37998;DHT22;24079;51.824;4.682;2023-09-08T06:44:55;22.10;99.90
37998;DHT22;24079;51.824;4.682;2023-09-08T06:47:21;22.40;99.90
37998;DHT22;24079;51.824;4.682;2023-09-08T06:49:47;23.00;99.90
37998;DHT22;24079;51.824;4.682;2023-09-08T06:52:13;23.50;99.90
37998;DHT22;24079;51.824;4.682;2023-09-08T06:54:40;23.60;99.90
37998;DHT22;24079;51.824;4.682;2023-09-08T06:57:06;23.60;99.90
37998;DHT22;24079;51.824;4.682;2023-09-08T06:59:32;23.60;99.90
37998;DHT22;24079;51.824;4.682;2023-09-08T07:01:57;23.70;99.90
37998;DHT22;24079;51.824;4.682;2023-09-08T07:04:23;23.60;99.90
37998;DHT22;24079;51.824;4.682;2023-09-08T07:06:49;23.60;99.90
37998;DHT22;24079;51.824;4.682;2023-09-08T07:09:16;23.80;99.90
37998;DHT22;24079;51.824;4.682;2023-09-08T07:11:42;24.30;99.90
37998;DHT22;24079;51.824;4.682;2023-09-08T07:14:08;24.70;99.90
37998;DHT22;24079;51.824;4.682;2023-09-08T07:16:34;24.90;99.90
37998;DHT22;24079;51.824;4.682;2023-09-08T07:19:01;25.40;99.90
37998;DHT22;24079;51.824;4.682;2023-09-08T07:21:27;25.40;99.90
37998;DHT22;24079;51.824;4.682;2023-09-08T07:23:53;25.40;99.90
37998;DHT22;24079;51.824;4.682;2023-09-08T07:26:22;25.40;99.90
37998;DHT22;24079;51.824;4.682;2023-09-08T07:28:48;25.70;99.90
37998;DHT22;24079;51.824;4.682;2023-09-08T07:31:14;26.20;99.90
37998;DHT22;24079;51.824;4.682;2023-09-08T07:33:40;26.70;99.90
37998;DHT22;24079;51.824;4.682;2023-09-08T07:36:07;27.40;99.90
37998;DHT22;24079;51.824;4.682;2023-09-08T07:38:33;27.90;99.90
37998;DHT22;24079;51.824;4.682;2023-09-08T07:40:59;28.20;99.90
37998;DHT22;24079;51.824;4.682;2023-09-08T07:43:27;28.50;99.90
37998;DHT22;24079;51.824;4.682;2023-09-08T07:45:53;28.80;99.90
37998;DHT22;24079;51.824;4.682;2023-09-08T07:48:19;29.00;99.90
37998;DHT22;24079;51.824;4.682;2023-09-08T07:50:44;29.20;99.90
37998;DHT22;24079;51.824;4.682;2023-09-08T07:53:10;29.60;99.90
37998;DHT22;24079;51.824;4.682;2023-09-08T07:55:36;29.60;99.90
37998;DHT22;24079;51.824;4.682;2023-09-08T07:58:02;29.70;99.90
37998;DHT22;24079;51.824;4.682;2023-09-08T08:00:31;29.80;99.90
37998;DHT22;24079;51.824;4.682;2023-09-08T08:02:57;29.90;99.90
37998;DHT22;24079;51.824;4.682;2023-09-08T08:05:24;29.90;99.90
37998;DHT22;24079;51.824;4.682;2023-09-08T08:07:50;30.00;99.90
37998;DHT22;24079;51.824;4.682;2023-09-08T08:10:16;30.10;99.90
37998;DHT22;24079;51.824;4.682;2023-09-08T08:12:43;30.40;99.90
37998;DHT22;24079;51.824;4.682;2023-09-08T08:15:09;30.80;99.90
37998;DHT22;24079;51.824;4.682;2023-09-08T08:17:36;30.90;99.90
37998;DHT22;24079;51.824;4.682;2023-09-08T08:20:03;30.90;99.90
37998;DHT22;24079;51.824;4.682;2023-09-08T08:22:43;30.90;99.90
37998;DHT22;24079;51.824;4.682;2023-09-08T08:25:09;30.80;99.90
37998;DHT22;24079;51.824;4.682;2023-09-08T08:27:35;30.80;99.90
37998;DHT22;24079;51.824;4.682;2023-09-08T08:30:01;30.90;99.90
37998;DHT22;24079;51.824;4.682;2023-09-08T08:32:27;30.90;99.90
37998;DHT22;24079;51.824;4.682;2023-09-08T08:34:53;31.10;99.90
37998;DHT22;24079;51.824;4.682;2023-09-08T08:37:19;31.10;99.90
37998;DHT22;24079;51.824;4.682;2023-09-08T08:39:44;31.00;99.90
37998;DHT22;24079;51.824;4.682;2023-09-08T08:42:11;30.80;99.90
37998;DHT22;24079;51.824;4.682;2023-09-08T08:44:40;30.70;99.90
37998;DHT22;24079;51.824;4.682;2023-09-08T08:47:10;30.60;99.90
37998;DHT22;24079;51.824;4.682;2023-09-08T08:49:36;30.70;99.90
37998;DHT22;24079;51.824;4.682;2023-09-08T08:52:02;30.80;99.90
37998;DHT22;24079;51.824;4.682;2023-09-08T08:54:38;30.70;99.90
37998;DHT22;24079;51.824;4.682;2023-09-08T08:57:04;30.60;99.90
37998;DHT22;24079;51.824;4.682;2023-09-08T08:59:30;30.50;99.90
37998;DHT22;24079;51.824;4.682;2023-09-08T09:01:58;30.50;99.90
37998;DHT22;24079;51.824;4.682;2023-09-08T09:04:24;30.70;99.90
37998;DHT22;24079;51.824;4.682;2023-09-08T09:06:52;30.50;99.90
37998;DHT22;24079;51.824;4.682;2023-09-08T09:09:19;30.40;99.90
37998;DHT22;24079;51.824;4.682;2023-09-08T09:11:44;30.40;99.90
37998;DHT22;24079;51.824;4.682;2023-09-08T09:14:10;30.40;99.90
37998;DHT22;24079;51.824;4.682;2023-09-08T09:16:40;30.50;99.90
37998;DHT22;24079;51.824;4.682;2023-09-08T09:19:06;30.20;99.90
37998;DHT22;24079;51.824;4.682;2023-09-08T09:24:56;30.20;99.90
37998;DHT22;24079;51.824;4.682;2023-09-08T09:27:12;30.00;99.90
37998;DHT22;24079;51.824;4.682;2023-09-08T09:32:12;29.60;99.90
37998;DHT22;24079;51.824;4.682;2023-09-08T09:34:48;29.50;99.90
37998;DHT22;24079;51.824;4.682;2023-09-08T09:37:15;29.60;99.90
37998;DHT22;24079;51.824;4.682;2023-09-08T09:39:41;29.90;99.90
37998;DHT22;24079;51.824;4.682;2023-09-08T09:42:06;30.20;99.90
37998;DHT22;24079;51.824;4.682;2023-09-08T09:44:32;30.20;99.90
37998;DHT22;24079;51.824;4.682;2023-09-08T09:47:00;30.30;99.90
37998;DHT22;24079;51.824;4.682;2023-09-08T09:49:26;30.20;99.90
37998;DHT22;24079;51.824;4.682;2023-09-08T09:51:58;30.50;99.90
37998;DHT22;24079;51.824;4.682;2023-09-08T09:54:24;30.60;99.90
37998;DHT22;24079;51.824;4.682;2023-09-08T09:56:50;30.70;99.90
37998;DHT22;24079;51.824;4.682;2023-09-08T09:59:17;30.70;99.90
37998;DHT22;24079;51.824;4.682;2023-09-08T10:01:43;31.00;99.90
37998;DHT22;24079;51.824;4.682;2023-09-08T10:04:10;31.20;99.90
37998;DHT22;24079;51.824;4.682;2023-09-08T10:06:37;31.30;99.90
37998;DHT22;24079;51.824;4.682;2023-09-08T10:09:04;31.20;99.90
37998;DHT22;24079;51.824;4.682;2023-09-08T10:11:35;31.30;99.90
37998;DHT22;24079;51.824;4.682;2023-09-08T10:14:04;31.40;99.90
37998;DHT22;24079;51.824;4.682;2023-09-08T10:16:35;31.40;99.90
37998;DHT22;24079;51.824;4.682;2023-09-08T10:19:10;31.50;99.90
37998;DHT22;24079;51.824;4.682;2023-09-08T10:21:40;31.50;99.90
37998;DHT22;24079;51.824;4.682;2023-09-08T10:24:15;31.30;99.90
37998;DHT22;24079;51.824;4.682;2023-09-08T10:26:44;31.20;99.90
37998;DHT22;24079;51.824;4.682;2023-09-08T10:29:13;31.40;99.90
37998;DHT22;24079;51.824;4.682;2023-09-08T10:31:39;31.60;99.90
37998;DHT22;24079;51.824;4.682;2023-09-08T10:34:06;31.70;99.90
37998;DHT22;24079;51.824;4.682;2023-09-08T10:36:34;31.80;99.90
37998;DHT22;24079;51.824;4.682;2023-09-08T10:39:29;31.90;99.90
37998;DHT22;24079;51.824;4.682;2023-09-08T10:44:59;32.00;99.90
37998;DHT22;24079;51.824;4.682;2023-09-08T10:47:55;32.10;99.90
37998;DHT22;24079;51.824;4.682;2023-09-08T10:50:34;32.00;99.90
37998;DHT22;24079;51.824;4.682;2023-09-08T10:53:16;32.10;99.90
37998;DHT22;24079;51.824;4.682;2023-09-08T10:55:44;32.10;99.90
37998;DHT22;24079;51.824;4.682;2023-09-08T10:58:37;32.00;99.90
37998;DHT22;24079;51.824;4.682;2023-09-08T11:01:15;32.00;99.90
37998;DHT22;24079;51.824;4.682;2023-09-08T11:06:08;32.20;99.90
37998;DHT22;24079;51.824;4.682;2023-09-08T11:08:44;32.40;99.90
37998;DHT22;24079;51.824;4.682;2023-09-08T11:11:15;32.40;99.90
37998;DHT22;24079;51.824;4.682;2023-09-08T11:13:41;32.40;99.90
37998;DHT22;24079;51.824;4.682;2023-09-08T11:16:08;32.40;99.90
37998;DHT22;24079;51.824;4.682;2023-09-08T11:18:34;32.40;99.90
37998;DHT22;24079;51.824;4.682;2023-09-08T11:21:02;32.40;99.90
37998;DHT22;24079;51.824;4.682;2023-09-08T11:23:29;32.50;99.90
37998;DHT22;24079;51.824;4.682;2023-09-08T11:25:57;32.50;99.90
37998;DHT22;24079;51.824;4.682;2023-09-08T11:28:24;32.50;99.90
37998;DHT22;24079;51.824;4.682;2023-09-08T11:30:50;32.60;99.90
37998;DHT22;24079;51.824;4.682;2023-09-08T11:33:21;32.60;99.90
37998;DHT22;24079;51.824;4.682;2023-09-08T11:35:54;32.40;99.90
37998;DHT22;24079;51.824;4.682;2023-09-08T11:38:27;32.10;99.90
37998;DHT22;24079;51.824;4.682;2023-09-08T11:40:54;32.00;99.90
37998;DHT22;24079;51.824;4.682;2023-09-08T11:43:22;32.00;99.90
37998;DHT22;24079;51.824;4.682;2023-09-08T11:45:47;32.00;99.90
37998;DHT22;24079;51.824;4.682;2023-09-08T11:48:14;32.00;99.90
37998;DHT22;24079;51.824;4.682;2023-09-08T11:50:41;32.00;99.90
37998;DHT22;24079;51.824;4.682;2023-09-08T11:53:08;31.90;99.90
37998;DHT22;24079;51.824;4.682;2023-09-08T11:55:35;31.90;99.90
37998;DHT22;24079;51.824;4.682;2023-09-08T11:58:04;32.00;99.90
37998;DHT22;24079;51.824;4.682;2023-09-08T12:00:30;32.10;99.90
37998;DHT22;24079;51.824;4.682;2023-09-08T12:02:58;32.30;99.90
37998;DHT22;24079;51.824;4.682;2023-09-08T12:05:34;32.30;99.90
37998;DHT22;24079;51.824;4.682;2023-09-08T12:07:59;32.20;99.90
37998;DHT22;24079;51.824;4.682;2023-09-08T12:10:30;32.20;99.90
37998;DHT22;24079;51.824;4.682;2023-09-08T12:13:02;32.20;99.90
37998;DHT22;24079;51.824;4.682;2023-09-08T12:15:41;32.20;99.90
37998;DHT22;24079;51.824;4.682;2023-09-08T12:18:13;32.10;99.90
37998;DHT22;24079;51.824;4.682;2023-09-08T12:20:41;32.20;99.90
37998;DHT22;24079;51.824;4.682;2023-09-08T12:23:19;32.20;99.90
37998;DHT22;24079;51.824;4.682;2023-09-08T12:25:46;32.30;99.90
37998;DHT22;24079;51.824;4.682;2023-09-08T12:28:12;32.30;99.90
37998;DHT22;24079;51.824;4.682;2023-09-08T12:30:38;32.40;99.90
37998;DHT22;24079;51.824;4.682;2023-09-08T12:33:04;32.40;99.90
37998;DHT22;24079;51.824;4.682;2023-09-08T12:35:30;32.40;99.90
37998;DHT22;24079;51.824;4.682;2023-09-08T12:37:58;32.30;99.90
37998;DHT22;24079;51.824;4.682;2023-09-08T12:40:29;32.10;99.90
37998;DHT22;24079;51.824;4.682;2023-09-08T12:42:55;32.20;99.90
37998;DHT22;24079;51.824;4.682;2023-09-08T12:45:22;32.30;99.90
37998;DHT22;24079;51.824;4.682;2023-09-08T12:47:51;32.20;99.90
37998;DHT22;24079;51.824;4.682;2023-09-08T12:50:17;32.20;99.90
37998;DHT22;24079;51.824;4.682;2023-09-08T12:52:43;31.90;99.90
37998;DHT22;24079;51.824;4.682;2023-09-08T12:55:10;31.70;99.90
37998;DHT22;24079;51.824;4.682;2023-09-08T12:57:36;31.80;99.90
37998;DHT22;24079;51.824;4.682;2023-09-08T13:00:06;31.70;99.90
37998;DHT22;24079;51.824;4.682;2023-09-08T13:02:32;31.50;99.90
37998;DHT22;24079;51.824;4.682;2023-09-08T13:04:58;31.60;99.90
37998;DHT22;24079;51.824;4.682;2023-09-08T13:07:30;31.70;99.90
37998;DHT22;24079;51.824;4.682;2023-09-08T13:09:56;31.70;99.90
37998;DHT22;24079;51.824;4.682;2023-09-08T13:12:22;31.60;99.90
37998;DHT22;24079;51.824;4.682;2023-09-08T13:14:47;31.60;99.90
37998;DHT22;24079;51.824;4.682;2023-09-08T13:17:13;31.60;99.90
37998;DHT22;24079;51.824;4.682;2023-09-08T13:19:42;31.70;99.90
37998;DHT22;24079;51.824;4.682;2023-09-08T13:22:08;31.80;99.90
37998;DHT22;24079;51.824;4.682;2023-09-08T13:24:36;31.90;99.90
37998;DHT22;24079;51.824;4.682;2023-09-08T13:27:02;31.90;99.90
37998;DHT22;24079;51.824;4.682;2023-09-08T13:29:28;32.00;99.90
37998;DHT22;24079;51.824;4.682;2023-09-08T13:31:54;31.90;99.90
37998;DHT22;24079;51.824;4.682;2023-09-08T13:34:21;32.00;99.90
37998;DHT22;24079;51.824;4.682;2023-09-08T13:36:47;31.90;99.90
37998;DHT22;24079;51.824;4.682;2023-09-08T13:39:13;31.80;99.90
37998;DHT22;24079;51.824;4.682;2023-09-08T13:41:52;31.60;99.90
37998;DHT22;24079;51.824;4.682;2023-09-08T13:44:20;31.60;99.90
37998;DHT22;24079;51.824;4.682;2023-09-08T13:46:46;31.60;99.90
37998;DHT22;24079;51.824;4.682;2023-09-08T13:49:13;31.60;99.90
37998;DHT22;24079;51.824;4.682;2023-09-08T13:51:39;31.60;99.90
37998;DHT22;24079;51.824;4.682;2023-09-08T13:54:06;31.50;99.90
37998;DHT22;24079;51.824;4.682;2023-09-08T13:56:33;31.30;99.90
37998;DHT22;24079;51.824;4.682;2023-09-08T13:58:59;31.50;99.90
37998;DHT22;24079;51.824;4.682;2023-09-08T14:01:25;31.50;99.90
37998;DHT22;24079;51.824;4.682;2023-09-08T14:03:53;31.50;99.90
37998;DHT22;24079;51.824;4.682;2023-09-08T14:06:19;31.50;99.90
37998;DHT22;24079;51.824;4.682;2023-09-08T14:08:46;31.30;99.90
37998;DHT22;24079;51.824;4.682;2023-09-08T14:11:12;31.40;99.90
37998;DHT22;24079;51.824;4.682;2023-09-08T14:13:38;31.30;99.90
37998;DHT22;24079;51.824;4.682;2023-09-08T14:16:05;31.40;99.90
37998;DHT22;24079;51.824;4.682;2023-09-08T14:18:31;31.30;99.90
37998;DHT22;24079;51.824;4.682;2023-09-08T14:20:58;31.30;99.90
37998;DHT22;24079;51.824;4.682;2023-09-08T14:23:24;31.40;99.90
37998;DHT22;24079;51.824;4.682;2023-09-08T14:25:50;31.30;99.90
37998;DHT22;24079;51.824;4.682;2023-09-08T14:28:16;31.40;99.90
37998;DHT22;24079;51.824;4.682;2023-09-08T14:30:42;31.30;99.90
37998;DHT22;24079;51.824;4.682;2023-09-08T14:33:10;31.30;99.90
37998;DHT22;24079;51.824;4.682;2023-09-08T14:35:41;31.30;99.90
37998;DHT22;24079;51.824;4.682;2023-09-08T14:38:07;31.30;99.90
37998;DHT22;24079;51.824;4.682;2023-09-08T14:40:33;31.40;99.90
37998;DHT22;24079;51.824;4.682;2023-09-08T14:42:59;31.40;99.90
37998;DHT22;24079;51.824;4.682;2023-09-08T14:45:25;31.30;99.90
37998;DHT22;24079;51.824;4.682;2023-09-08T14:47:53;31.20;99.90
37998;DHT22;24079;51.824;4.682;2023-09-08T14:50:19;31.10;99.90
37998;DHT22;24079;51.824;4.682;2023-09-08T14:52:44;31.20;99.90
37998;DHT22;24079;51.824;4.682;2023-09-08T14:55:10;31.20;99.90
37998;DHT22;24079;51.824;4.682;2023-09-08T14:57:36;31.30;99.90
37998;DHT22;24079;51.824;4.682;2023-09-08T15:00:03;31.20;99.90
37998;DHT22;24079;51.824;4.682;2023-09-08T15:02:30;31.20;99.90
37998;DHT22;24079;51.824;4.682;2023-09-08T15:04:56;31.30;99.90
37998;DHT22;24079;51.824;4.682;2023-09-08T15:07:22;31.30;99.90
37998;DHT22;24079;51.824;4.682;2023-09-08T15:09:48;31.30;99.90
37998;DHT22;24079;51.824;4.682;2023-09-08T15:12:16;31.20;99.90
37998;DHT22;24079;51.824;4.682;2023-09-08T15:14:42;31.20;99.90
37998;DHT22;24079;51.824;4.682;2023-09-08T15:17:10;31.20;99.90
37998;DHT22;24079;51.824;4.682;2023-09-08T15:19:36;31.20;99.90
37998;DHT22;24079;51.824;4.682;2023-09-08T15:22:03;31.10;99.90
37998;DHT22;24079;51.824;4.682;2023-09-08T15:24:28;31.10;99.90
37998;DHT22;24079;51.824;4.682;2023-09-08T15:26:54;31.00;99.90
37998;DHT22;24079;51.824;4.682;2023-09-08T15:29:19;31.00;99.90
37998;DHT22;24079;51.824;4.682;2023-09-08T15:31:45;31.00;99.90
37998;DHT22;24079;51.824;4.682;2023-09-08T15:34:12;31.00;99.90
37998;DHT22;24079;51.824;4.682;2023-09-08T15:36:38;31.00;99.90
37998;DHT22;24079;51.824;4.682;2023-09-08T15:39:04;31.00;99.90
37998;DHT22;24079;51.824;4.682;2023-09-08T15:41:30;30.90;99.90
37998;DHT22;24079;51.824;4.682;2023-09-08T15:43:57;30.90;99.90
37998;DHT22;24079;51.824;4.682;2023-09-08T15:46:22;30.80;99.90